Time;durP1;ratioP1;P1;durP2;ratioP2;P2;SDS_P1;SDS_P2;PMS_P1;PMS_P2;Temp;Humidity;BMP_temperature;BMP_pressure;BME280_temperature;BME280_humidity;BME280_pressure;Samples;Min_cycle;Max_cycle;Signal;HPM_P1;HPM_P2
2022/09/30 10:40:50;;;;;;;6.28;4.30;;;;;;;29.75;77.13;100526.94;4716387;28;71466;-38
2022/09/30 10:43:38;;;;;;;7.35;4.63;;;;;;;30.25;76.44;100618.91;5015253;28;66053;-39
2022/09/30 10:46:21;;;;;;;7.88;4.30;;;;;;;30.20;77.05;100620.59;5016003;28;70442;-40
2022/09/30 10:48:59;;;;;;;5.30;4.80;;;;;;;30.23;77.12;100636.44;4999538;28;66684;-40
2022/09/30 10:51:35;;;;;;;4.68;4.28;;;;;;;30.24;77.08;100638.91;5012950;28;71460;-38
2022/09/30 10:54:27;;;;;;;5.50;4.60;;;;;;;30.21;77.45;100636.63;5018521;28;66898;-39
2022/09/30 10:57:03;;;;;;;5.63;5.10;;;;;;;30.24;77.47;100632.66;5020208;28;70898;-39
2022/09/30 10:59:38;;;;;;;5.78;5.00;;;;;;;30.20;78.04;100628.72;5019931;28;66937;-40
2022/09/30 11:02:26;;;;;;;8.07;5.15;;;;;;;30.17;78.15;100627.31;5000819;28;70343;-39
2022/09/30 11:05:19;;;;;;;4.55;4.13;;;;;;;30.11;78.16;100643.56;5019287;28;65645;-39
2022/09/30 11:08:22;;;;;;;7.35;5.18;;;;;;;30.04;78.15;100638.22;5020114;28;70900;-39
2022/09/30 11:11:02;;;;;;;7.15;4.75;;;;;;;30.15;78.22;100645.63;5022081;28;66463;-39
2022/09/30 11:14:07;;;;;;;5.90;5.40;;;;;;;30.09;78.60;100651.94;5021413;28;70383;-39
2022/09/30 11:16:49;;;;;;;5.65;5.10;;;;;;;29.68;78.67;100580.25;5020516;28;66554;-39
2022/09/30 11:19:28;;;;;;;5.93;5.35;;;;;;;30.01;78.79;100622.44;5017971;28;70727;-39
2022/09/30 11:22:28;;;;;;;6.32;5.05;;;;;;;30.14;78.76;100653.94;5002502;28;66006;-38
2022/09/30 11:25:02;;;;;;;7.38;4.85;;;;;;;30.14;79.53;100652.06;5003288;28;70293;-39
2022/09/30 11:28:08;;;;;;;8.50;5.57;;;;;;;29.65;79.97;100594.22;5003247;28;66644;-38
2022/09/30 11:31:04;;;;;;;7.90;5.78;;;;;;;30.13;79.49;100663.94;5019670;28;70529;-38
2022/09/30 11:33:54;;;;;;;9.25;5.80;;;;;;;30.14;79.41;100670.19;5002749;28;66410;-39
2022/09/30 11:36:42;;;;;;;11.80;5.53;;;;;;;30.14;80.13;100668.28;5015948;28;70708;-40
2022/09/30 11:39:36;;;;;;;6.88;5.28;;;;;;;30.09;80.31;100673.56;5020964;28;66852;-38
2022/09/30 11:42:27;;;;;;;14.05;5.07;;;;;;;29.67;80.38;100584.03;5019267;28;70856;-39
2022/09/30 11:45:35;;;;;;;13.13;5.57;;;;;;;30.11;80.02;100666.03;5012698;28;66864;-39
2022/09/30 11:48:31;;;;;;;7.22;6.22;;;;;;;30.11;80.59;100681.44;4993253;28;71029;-39
2022/09/30 11:51:34;;;;;;;7.38;6.72;;;;;;;29.68;80.35;100607.28;5020891;28;66936;-39
2022/09/30 11:54:34;;;;;;;7.82;7.10;;;;;;;30.13;80.46;100691.00;5012407;28;71017;-39
2022/09/30 11:57:25;;;;;;;9.43;8.05;;;;;;;30.25;79.00;100694.66;5015917;28;66735;-39
2022/09/30 12:00:16;;;;;;;7.53;6.90;;;;;;;29.68;80.13;100618.09;5019947;28;69261;-39
2022/09/30 12:02:58;;;;;;;9.20;8.35;;;;;;;30.15;79.58;100680.78;5015050;28;67171;-39
2022/09/30 12:05:41;;;;;;;10.60;9.07;;;;;;;30.24;80.16;100703.84;5019903;28;70556;-39
2022/09/30 12:08:33;;;;;;;27.63;10.07;;;;;;;30.14;79.36;100681.81;5020057;28;67073;-37
2022/09/30 12:11:14;;;;;;;29.00;9.52;;;;;;;30.47;78.27;100714.06;5017086;28;70914;-38
2022/09/30 12:13:55;;;;;;;17.33;8.90;;;;;;;30.52;77.63;100715.28;5020052;28;66736;-37
2022/09/30 12:16:32;;;;;;;17.88;9.45;;;;;;;30.43;78.46;100712.84;5016682;28;70773;-38
2022/09/30 12:19:13;;;;;;;13.40;9.70;;;;;;;30.41;78.98;100724.94;5019856;28;66375;-39
2022/09/30 12:21:54;;;;;;;19.88;9.82;;;;;;;30.40;79.24;100731.41;5016966;28;70044;-38
2022/09/30 12:24:36;;;;;;;19.02;10.02;;;;;;;30.38;79.07;100733.50;5019370;28;66858;-37
2022/09/30 12:27:30;;;;;;;20.80;9.35;;;;;;;30.20;79.34;100718.84;5020872;28;70920;-37
2022/09/30 12:30:16;;;;;;;10.88;9.82;;;;;;;30.26;79.33;100717.16;5020273;28;67026;-38
2022/09/30 12:33:09;;;;;;;10.68;9.75;;;;;;;30.34;78.92;100732.28;5013881;28;70611;-38
2022/09/30 12:36:16;;;;;;;13.50;10.32;;;;;;;30.22;79.49;100738.41;5014369;28;67299;-37
2022/09/30 12:39:13;;;;;;;12.93;11.68;;;;;;;30.28;79.49;100742.97;5014107;28;70456;-39
2022/09/30 12:42:00;;;;;;;15.70;11.82;;;;;;;30.26;79.14;100736.09;4998083;28;67539;-39
2022/09/30 12:44:41;;;;;;;12.48;11.35;;;;;;;30.12;79.47;100716.41;5019841;28;70791;-38
2022/09/30 12:47:46;;;;;;;18.15;12.85;;;;;;;30.25;78.71;100735.25;5013647;28;66411;-39
2022/09/30 12:50:33;;;;;;;17.38;12.55;;;;;;;29.78;78.89;100675.25;5006699;28;71245;-38
2022/09/30 12:53:23;;;;;;;16.80;12.20;;;;;;;30.18;78.85;100742.56;5019442;28;66238;-39
2022/09/30 12:56:10;;;;;;;15.07;13.55;;;;;;;29.74;78.89;100692.94;5020263;28;70052;-39
2022/09/30 12:58:45;;;;;;;14.05;12.60;;;;;;;29.85;78.45;100718.44;5003849;28;66322;-39
2022/09/30 13:01:30;;;;;;;14.30;13.02;;;;;;;29.77;79.09;100718.69;5001690;28;70668;-39
2022/09/30 13:04:03;;;;;;;16.55;14.77;;;;;;;30.23;78.35;100794.19;5018593;28;66074;-39
2022/09/30 13:06:46;;;;;;;15.90;14.32;;;;;;;30.20;78.56;100800.00;5008653;28;70505;-41
2022/09/30 13:09:37;;;;;;;16.90;15.32;;;;;;;30.16;78.14;100809.59;5013745;28;66188;-40
2022/09/30 13:12:24;;;;;;;19.60;15.43;;;;;;;29.73;78.27;100745.34;5017884;28;70833;-40
2022/09/30 13:15:21;;;;;;;18.13;16.27;;;;;;;30.11;78.52;100822.94;5009474;28;66100;-39
2022/09/30 13:18:25;;;;;;;17.23;15.48;;;;;;;29.96;78.22;100798.06;5016799;28;70213;-40
2022/09/30 13:21:08;;;;;;;24.00;16.77;;;;;;;30.12;78.14;100823.78;4997930;28;66533;-39
2022/09/30 13:23:43;;;;;;;26.00;17.77;;;;;;;30.15;78.18;100828.75;5015990;28;70592;-40
2022/09/30 13:26:42;;;;;;;24.92;16.73;;;;;;;30.10;78.41;100831.28;5014330;28;66255;-40
2022/09/30 13:29:19;;;;;;;23.15;17.92;;;;;;;30.18;78.07;100845.38;5019733;28;71407;-39
2022/09/30 13:31:52;;;;;;;21.25;17.90;;;;;;;30.13;78.33;100841.66;5017540;28;66350;-39
2022/09/30 13:34:32;;;;;;;22.67;18.23;;;;;;;30.10;77.98;100842.09;5017682;28;70918;-39
2022/09/30 13:37:25;;;;;;;22.15;18.92;;;;;;;30.11;78.13;100838.34;5019083;28;66152;-40
2022/09/30 13:40:03;;;;;;;24.10;19.27;;;;;;;30.15;77.68;100861.22;5014970;28;70805;-40
2022/09/30 13:42:45;;;;;;;25.20;20.13;;;;;;;30.11;78.27;100865.38;4985427;28;65471;-41
2022/09/30 13:45:25;;;;;;;35.60;20.58;;;;;;;29.98;77.94;100850.06;5017916;28;70621;-39
2022/09/30 13:48:15;;;;;;;25.98;18.77;;;;;;;30.10;78.16;100859.16;5017575;28;67220;-40
2022/09/30 13:50:54;;;;;;;22.52;19.98;;;;;;;30.10;78.39;100869.97;5018772;28;70688;-41
2022/09/30 13:53:45;;;;;;;22.73;19.83;;;;;;;30.09;78.09;100881.84;5001623;28;66711;-40
2022/09/30 13:56:30;;;;;;;24.83;20.00;;;;;;;29.73;78.28;100812.94;5016838;28;70780;-39
2022/09/30 13:59:17;;;;;;;22.65;18.45;;;;;;;30.10;77.85;100883.50;5014983;28;66009;-40
2022/09/30 14:02:37;;;;;;;24.85;19.90;;;;;;;30.00;78.37;100888.53;5017546;28;70847;-40
2022/09/30 14:05:45;;;;;;;26.58;19.80;;;;;;;29.60;78.25;100821.06;4989769;28;65506;-39
2022/09/30 14:08:41;;;;;;;22.25;19.05;;;;;;;30.03;78.29;100890.81;5011435;28;70588;-40
2022/09/30 14:12:11;;;;;;;23.75;19.17;;;;;;;29.93;78.44;100874.22;4995755;28;66048;-42
2022/09/30 14:15:10;;;;;;;19.77;17.73;;;;;;;30.08;77.66;100888.28;4984393;28;70539;-40
2022/09/30 14:17:59;;;;;;;22.05;18.48;;;;;;;30.10;77.46;100897.03;5019503;28;66698;-39
2022/09/30 14:20:57;;;;;;;31.67;18.23;;;;;;;29.65;77.83;100807.75;5017597;28;70252;-39
2022/09/30 14:23:30;;;;;;;19.52;17.20;;;;;;;30.11;77.78;100892.44;5019093;28;67025;-39
2022/09/30 14:26:45;;;;;;;18.58;16.48;;;;;;;30.09;77.65;100911.59;4985771;28;70667;-39
2022/09/30 14:29:29;;;;;;;18.52;16.25;;;;;;;30.11;78.00;100914.09;5013103;28;67176;-40
2022/09/30 14:32:17;;;;;;;27.85;15.75;;;;;;;30.07;77.53;100919.09;4998363;28;69773;-39
2022/09/30 14:34:55;;;;;;;17.77;15.88;;;;;;;30.09;77.66;100908.06;5018537;28;66686;-39
2022/09/30 14:37:50;;;;;;;16.83;15.10;;;;;;;30.14;77.80;100919.88;5013443;28;69660;-39
2022/09/30 14:40:37;;;;;;;19.63;14.02;;;;;;;29.62;77.52;100835.19;5002022;28;67137;-39
2022/09/30 14:43:17;;;;;;;20.77;14.77;;;;;;;29.63;76.96;100842.28;5014616;28;70620;-39
2022/09/30 14:45:58;;;;;;;20.93;13.40;;;;;;;29.70;77.81;100858.47;5019496;28;67576;-39
2022/09/30 14:48:38;;;;;;;17.48;13.23;;;;;;;30.12;78.18;100921.19;5018676;28;70295;-38
2022/09/30 14:51:19;;;;;;;15.20;12.25;;;;;;;30.12;78.01;100921.19;5003424;28;66911;-39
2022/09/30 14:54:01;;;;;;;19.95;12.80;;;;;;;29.64;78.14;100849.34;5015838;28;70936;-38
2022/09/30 14:56:37;;;;;;;17.23;10.80;;;;;;;30.05;78.53;100915.78;5019687;28;66907;-39
2022/09/30 14:59:32;;;;;;;15.43;11.30;;;;;;;29.92;79.06;100910.41;5017031;28;69174;-38
2022/09/30 15:02:20;;;;;;;13.63;10.77;;;;;;;29.54;77.91;100838.13;5018367;28;66308;-39
2022/09/30 15:04:58;;;;;;;16.67;9.85;;;;;;;29.56;76.90;100849.53;5014483;28;70223;-38
2022/09/30 15:07:31;;;;;;;14.50;9.70;;;;;;;29.90;75.61;100912.50;5017650;28;66729;-39
2022/09/30 15:10:06;;;;;;;11.43;9.43;;;;;;;29.78;74.53;100915.88;5016226;28;70267;-40
2022/09/30 15:12:42;;;;;;;16.48;9.20;;;;;;;29.56;72.80;100881.97;5012924;28;67665;-38
2022/09/30 15:15:33;;;;;;;9.93;9.02;;;;;;;29.56;71.67;100917.09;5011717;28;70243;-39
2022/09/30 15:18:25;;;;;;;10.57;8.90;;;;;;;29.46;70.82;100908.63;5007975;28;67234;-39
2022/09/30 15:21:03;;;;;;;10.18;8.13;;;;;;;29.42;69.34;100905.53;5011668;28;70837;-39
2022/09/30 15:23:41;;;;;;;9.27;8.40;;;;;;;28.90;70.19;100815.34;5012598;28;66444;-39
2022/09/30 15:26:14;;;;;;;9.00;7.97;;;;;;;29.23;69.50;100869.38;4987839;28;70657;-39
2022/09/30 15:28:47;;;;;;;10.40;8.45;;;;;;;29.43;69.36;100895.53;5015763;28;66025;-40
2022/09/30 15:31:26;;;;;;;8.55;7.38;;;;;;;28.99;67.18;100843.78;4997001;28;70931;-39
2022/09/30 15:34:06;;;;;;;17.42;7.57;;;;;;;29.24;66.55;100887.22;5011865;28;66804;-40
2022/09/30 15:36:41;;;;;;;10.52;7.13;;;;;;;29.25;65.88;100888.88;5012370;28;70712;-41
2022/09/30 15:39:23;;;;;;;9.70;7.35;;;;;;;28.67;64.93;100805.78;4993894;28;66372;-40
2022/09/30 15:41:56;;;;;;;12.73;6.87;;;;;;;29.01;65.38;100865.19;5012535;28;69450;-39
2022/09/30 15:44:39;;;;;;;13.15;6.82;;;;;;;29.09;63.62;100884.75;5012405;28;66217;-40
2022/09/30 15:47:11;;;;;;;18.23;6.43;;;;;;;29.09;63.24;100886.63;5009857;28;70780;-39
2022/09/30 15:49:47;;;;;;;13.75;6.70;;;;;;;29.10;62.99;100875.59;5011200;28;66542;-40
2022/09/30 15:52:28;;;;;;;7.57;6.63;;;;;;;29.04;62.47;100878.31;5006876;28;70258;-40
2022/09/30 15:55:00;;;;;;;8.13;5.65;;;;;;;28.91;62.06;100855.63;5011459;28;65928;-40
2022/09/30 15:57:47;;;;;;;12.30;5.70;;;;;;;28.90;61.07;100872.88;5010921;28;69401;-39
2022/09/30 16:00:39;;;;;;;7.65;5.20;;;;;;;28.80;60.35;100883.25;5008984;28;66854;-40
2022/09/30 16:03:25;;;;;;;8.15;5.47;;;;;;;28.84;60.64;100870.19;5011743;28;69906;-40
2022/09/30 16:06:13;;;;;;;9.40;5.63;;;;;;;28.92;61.40;100876.22;5012253;28;66799;-40
2022/09/30 16:09:00;;;;;;;18.35;5.40;;;;;;;28.50;61.67;100772.13;5013887;28;70867;-40
2022/09/30 16:11:40;;;;;;;13.80;5.70;;;;;;;28.71;62.28;100784.59;5013041;28;65452;-40
2022/09/30 16:14:26;;;;;;;13.93;5.35;;;;;;;28.64;60.35;100778.38;4995117;28;70752;-40
2022/09/30 16:17:02;;;;;;;10.60;5.32;;;;;;;28.77;62.20;100778.38;5013274;28;67357;-40
2022/09/30 16:19:35;;;;;;;7.65;5.70;;;;;;;29.18;62.13;100855.66;5010109;28;69968;-40
2022/09/30 16:22:27;;;;;;;9.00;5.65;;;;;;;29.06;59.32;100846.50;5012896;28;67216;-41
2022/09/30 16:25:20;;;;;;;10.13;5.00;;;;;;;28.63;60.90;100755.13;5017251;28;70051;-40
2022/09/30 16:27:58;;;;;;;8.98;5.03;;;;;;;28.28;60.99;100698.66;5014248;28;67021;-40
2022/09/30 16:30:33;;;;;;;13.27;5.20;;;;;;;29.08;60.81;100822.81;5014767;28;70458;-39
2022/09/30 16:33:06;;;;;;;9.90;4.97;;;;;;;29.16;60.60;100830.72;5013624;28;66553;-39
2022/09/30 16:35:41;;;;;;;13.68;5.30;;;;;;;29.04;59.61;100821.59;5015184;28;70154;-39
2022/09/30 16:38:17;;;;;;;12.55;5.55;;;;;;;28.62;59.44;100742.69;5014887;28;66603;-40
2022/09/30 16:40:50;;;;;;;9.88;4.60;;;;;;;29.12;60.40;100818.69;5003319;28;70483;-40
2022/09/30 16:43:25;;;;;;;6.03;4.45;;;;;;;29.10;59.71;100818.88;5019163;28;65813;-40
2022/09/30 16:45:58;;;;;;;4.65;4.25;;;;;;;29.00;59.49;100814.91;5021578;28;71017;-40
2022/09/30 16:48:31;;;;;;;5.35;4.63;;;;;;;28.99;59.41;100807.84;5019691;28;67053;-39
2022/09/30 16:51:13;;;;;;;4.97;4.30;;;;;;;28.64;58.51;100751.38;5019497;28;70695;-41
2022/09/30 16:53:48;;;;;;;10.13;4.82;;;;;;;28.94;58.84;100817.41;5018145;28;67033;-40
2022/09/30 16:56:21;;;;;;;4.78;4.38;;;;;;;29.01;58.42;100822.00;5013935;28;70697;-40
2022/09/30 16:58:53;;;;;;;7.60;4.72;;;;;;;28.87;58.69;100805.78;5019517;28;66691;-40
2022/09/30 17:01:27;;;;;;;4.40;4.00;;;;;;;28.98;58.03;100823.22;5015584;28;70102;-40
2022/09/30 17:03:59;;;;;;;10.48;4.35;;;;;;;28.96;57.79;100826.13;5020187;28;67038;-41
2022/09/30 17:06:32;;;;;;;4.38;4.05;;;;;;;28.96;57.59;100825.31;5014234;28;70776;-41
2022/09/30 17:09:05;;;;;;;6.43;4.50;;;;;;;28.93;57.34;100821.16;5014443;28;66222;-39
2022/09/30 17:11:38;;;;;;;7.00;4.22;;;;;;;28.91;57.46;100811.59;5019428;28;70816;-39
2022/09/30 17:14:10;;;;;;;5.70;3.88;;;;;;;28.89;56.89;100809.13;5014550;28;66690;-40
2022/09/30 17:16:45;;;;;;;4.20;3.80;;;;;;;28.90;57.06;100818.03;5017531;28;71351;-40
2022/09/30 17:19:17;;;;;;;4.55;3.80;;;;;;;28.87;56.63;100805.78;5012496;28;66223;-40
2022/09/30 17:21:51;;;;;;;4.47;4.07;;;;;;;28.85;56.55;100802.47;5015098;28;70467;-40
2022/09/30 17:24:23;;;;;;;6.80;4.70;;;;;;;28.85;56.32;100804.34;5018982;28;66707;-40
2022/09/30 17:26:56;;;;;;;4.82;4.38;;;;;;;28.82;55.98;100800.19;5017805;28;71005;-40
2022/09/30 17:29:30;;;;;;;4.30;4.00;;;;;;;28.82;56.54;100797.47;5018307;28;66711;-40
2022/09/30 17:32:03;;;;;;;4.45;4.05;;;;;;;28.76;56.20;100786.69;5019307;28;70964;-39
2022/09/30 17:34:36;;;;;;;4.95;4.35;;;;;;;28.79;56.03;100783.56;5019897;28;66569;-40
2022/09/30 17:37:08;;;;;;;4.30;4.00;;;;;;;28.72;55.33;100786.25;5019790;28;70898;-40
2022/09/30 17:39:41;;;;;;;4.38;4.00;;;;;;;28.79;55.29;100795.19;5019251;28;66887;-39
2022/09/30 17:45:05;;;;;;;12.85;4.20;;;;;;;28.67;55.52;100781.50;5018352;28;66997;-40
2022/09/30 17:47:40;;;;;;;4.20;3.90;;;;;;;28.76;54.91;100778.59;5018365;28;69899;-39
2022/09/30 17:50:13;;;;;;;3.67;3.38;;;;;;;28.76;54.69;100781.28;5018889;28;66799;-40
2022/09/30 17:52:45;;;;;;;3.90;3.60;;;;;;;28.74;54.55;100768.00;5012726;28;70858;-40
2022/09/30 17:55:18;;;;;;;3.85;3.55;;;;;;;28.62;54.43;100748.91;5013455;28;65215;-40
2022/09/30 17:57:52;;;;;;;4.88;3.72;;;;;;;28.77;54.34;100766.75;5019365;28;70832;-39
2022/09/30 18:00:27;;;;;;;4.20;3.80;;;;;;;28.75;53.85;100769.66;5014464;28;66890;-39
2022/09/30 18:02:59;;;;;;;4.28;3.90;;;;;;;28.72;54.56;100768.22;5019895;28;70264;-40
2022/09/30 18:05:32;;;;;;;4.82;3.50;;;;;;;28.71;54.18;100768.41;5019353;28;66100;-39
2022/09/30 18:08:05;;;;;;;4.10;3.70;;;;;;;28.64;53.92;100751.38;5012018;28;71646;-39
2022/09/30 18:10:37;;;;;;;4.07;3.78;;;;;;;28.63;54.02;100755.13;5016759;28;66743;-40
2022/09/30 18:13:10;;;;;;;3.70;3.40;;;;;;;28.67;54.03;100761.78;5018112;28;70147;-40
2022/09/30 18:15:42;;;;;;;4.13;3.47;;;;;;;28.65;53.86;100759.28;5016894;28;66488;-40
2022/09/30 18:18:15;;;;;;;4.45;4.05;;;;;;;28.66;54.25;100765.50;5018187;28;70623;-40
2022/09/30 18:20:49;;;;;;;3.88;3.42;;;;;;;28.63;54.04;100765.91;5018325;28;66171;-41
2022/09/30 18:23:21;;;;;;;4.45;3.80;;;;;;;28.63;53.55;100760.53;5018797;28;70878;-39
2022/09/30 18:25:55;;;;;;;6.82;3.40;;;;;;;28.61;53.39;100757.19;5016159;28;66405;-39
2022/09/30 18:28:27;;;;;;;3.45;3.17;;;;;;;28.61;53.91;100757.19;5014518;28;70513;-39
2022/09/30 18:31:07;;;;;;;5.80;3.95;;;;;;;28.57;52.42;100755.97;5014207;28;67563;-39
2022/09/30 18:33:39;;;;;;;3.83;2.88;;;;;;;28.57;53.35;100750.56;5020996;28;71346;-39
2022/09/30 18:36:12;;;;;;;3.70;3.40;;;;;;;28.37;53.18;100723.56;5005309;28;67434;-38
2022/09/30 18:38:44;;;;;;;5.85;3.00;;;;;;;28.53;53.12;100760.97;5022332;28;70256;-39
2022/09/30 18:41:16;;;;;;;3.83;3.17;;;;;;;28.54;53.26;100753.69;5005640;28;66478;-39
2022/09/30 18:43:55;;;;;;;3.78;3.45;;;;;;;28.02;53.48;100667.91;5022189;28;71004;-39
2022/09/30 18:46:28;;;;;;;3.10;2.80;;;;;;;28.42;52.88;100740.81;5021107;28;66961;-39
2022/09/30 18:49:01;;;;;;;4.07;3.28;;;;;;;28.35;52.71;100723.75;5002464;28;70870;-39
2022/09/30 18:51:33;;;;;;;3.40;3.10;;;;;;;28.47;53.04;100749.13;5004869;28;66841;-39
2022/09/30 18:54:06;;;;;;;3.42;3.13;;;;;;;28.44;52.57;100749.50;5003746;28;69946;-38
2022/09/30 18:56:38;;;;;;;4.28;3.13;;;;;;;28.47;52.75;100751.81;5020480;28;67036;-40
2022/09/30 18:59:14;;;;;;;3.47;3.17;;;;;;;28.44;52.83;100746.81;5020787;28;70282;-39
2022/09/30 19:01:52;;;;;;;3.80;3.20;;;;;;;28.47;52.40;100757.22;5017065;28;66639;-40
2022/09/30 19:04:25;;;;;;;3.70;3.40;;;;;;;28.45;52.75;100753.06;5011622;28;70051;-40
2022/09/30 19:06:57;;;;;;;5.30;3.17;;;;;;;28.43;52.77;100755.94;5024276;28;66479;-39
2022/09/30 19:09:30;;;;;;;3.70;3.15;;;;;;;28.39;52.31;100765.47;5005080;28;70785;-39
2022/09/30 19:12:03;;;;;;;3.28;2.97;;;;;;;28.42;52.23;100765.09;5020945;28;65234;-39
2022/09/30 19:14:36;;;;;;;3.38;3.08;;;;;;;28.42;51.96;100757.00;5020273;28;70313;-39
2022/09/30 19:17:09;;;;;;;5.07;2.92;;;;;;;28.40;52.59;100758.22;5021807;28;66973;-39
2022/09/30 19:19:44;;;;;;;3.42;3.13;;;;;;;28.19;52.39;100727.66;5018707;28;70957;-39
2022/09/30 19:22:16;;;;;;;3.15;2.95;;;;;;;28.42;52.05;100758.84;5022039;28;66259;-40
2022/09/30 19:24:49;;;;;;;3.25;3.05;;;;;;;28.38;51.98;100758.41;5018526;28;70102;-40
2022/09/30 19:27:23;;;;;;;;;;;;;;;28.01;51.01;100763.34;5021548;28;66678;-40
2022/09/30 19:29:56;;;;;;;3.53;3.08;;;;;;;28.30;52.39;100753.22;5021900;28;70830;-40
2022/09/30 19:32:33;;;;;;;3.75;3.45;;;;;;;28.36;51.92;100748.84;5016260;28;66795;-40
2022/09/30 19:35:10;;;;;;;3.70;3.40;;;;;;;28.15;51.53;100725.63;5013933;28;70887;-40
2022/09/30 19:37:44;;;;;;;3.70;3.40;;;;;;;28.33;51.53;100747.41;5018980;28;66265;-40
2022/09/30 19:40:31;;;;;;;3.88;3.50;;;;;;;28.33;52.09;100747.41;5006379;28;69745;-39
2022/09/30 19:43:08;;;;;;;7.68;3.78;;;;;;;28.33;51.62;100744.69;5020036;28;66914;-40
2022/09/30 19:45:41;;;;;;;3.65;3.35;;;;;;;28.33;51.94;100749.28;5024002;28;70517;-40
2022/09/30 19:48:13;;;;;;;3.30;3.10;;;;;;;28.32;51.84;100750.31;5019424;28;66905;-41
2022/09/30 19:50:45;;;;;;;;;;;;;;;27.97;51.13;100751.31;5021075;28;71401;-40
2022/09/30 19:53:17;;;;;;;4.72;3.47;;;;;;;28.17;51.56;100739.72;5021245;28;67380;-41
2022/09/30 19:56:26;;;;;;;3.35;3.15;;;;;;;28.12;50.41;100744.91;5020001;28;71195;-40
2022/09/30 19:58:59;;;;;;;3.80;3.50;;;;;;;28.24;51.95;100751.34;5015262;28;66293;-41
2022/09/30 20:01:33;;;;;;;3.38;3.08;;;;;;;28.25;51.23;100743.06;5015917;28;71096;-41
2022/09/30 20:04:07;;;;;;;3.50;3.30;;;;;;;28.23;51.58;100749.69;5015465;28;66415;-40
2022/09/30 20:06:40;;;;;;;3.17;2.95;;;;;;;28.20;51.24;100747.41;5015217;28;70031;-40
2022/09/30 20:09:13;;;;;;;4.05;3.30;;;;;;;28.18;51.55;100746.78;5021008;28;66155;-40
2022/09/30 20:11:45;;;;;;;3.72;3.42;;;;;;;28.21;50.95;100751.75;5020638;28;70909;-40
2022/09/30 20:17:08;;;;;;;3.35;3.05;;;;;;;28.19;51.24;100740.34;5015179;28;70175;-40
2022/09/30 20:19:40;;;;;;;3.53;3.22;;;;;;;28.20;50.53;100728.53;5020219;28;66813;-40
2022/09/30 20:22:13;;;;;;;3.20;2.90;;;;;;;28.21;51.02;100730.19;5019168;28;70641;-39
2022/09/30 20:24:46;;;;;;;5.13;2.88;;;;;;;28.21;50.58;100725.59;5018553;28;66864;-40
2022/09/30 20:27:18;;;;;;;2.95;2.75;;;;;;;28.19;50.49;100721.44;5017370;28;71068;-40
2022/09/30 20:29:50;;;;;;;2.97;2.78;;;;;;;28.22;50.61;100721.91;5021224;28;66926;-40
2022/09/30 20:32:22;;;;;;;4.50;2.80;;;;;;;28.22;50.35;100726.44;5019560;28;70864;-40
2022/09/30 20:34:55;;;;;;;9.10;3.38;;;;;;;27.72;50.29;100639.66;5020415;28;66316;-40
2022/09/30 20:37:28;;;;;;;6.40;2.83;;;;;;;28.22;50.66;100718.34;5020541;28;70020;-39
2022/09/30 20:40:02;;;;;;;3.50;3.20;;;;;;;28.20;50.41;100717.75;5009826;28;67071;-39
2022/09/30 20:42:36;;;;;;;5.07;3.13;;;;;;;28.20;50.17;100717.75;5014973;28;70505;-39
2022/09/30 20:45:10;;;;;;;3.67;3.35;;;;;;;28.16;50.53;100711.06;5017211;28;67031;-39
2022/09/30 20:47:44;;;;;;;2.95;2.72;;;;;;;28.05;49.90;100694.50;5012318;28;70812;-39
2022/09/30 20:50:33;;;;;;;2.85;2.50;;;;;;;28.03;49.78;100685.78;5020705;28;67049;-39
2022/09/30 20:53:11;;;;;;;3.42;3.13;;;;;;;28.15;49.64;100712.13;5016075;28;71271;-40
2022/09/30 20:55:43;;;;;;;2.88;2.65;;;;;;;28.18;50.11;100719.81;5015104;28;66669;-40
2022/09/30 20:58:17;;;;;;;2.80;2.60;;;;;;;28.16;49.83;100711.91;5012672;28;70802;-39
2022/09/30 21:00:49;;;;;;;2.55;2.35;;;;;;;28.04;49.36;100700.06;5007955;28;66894;-40
2022/09/30 21:03:22;;;;;;;2.95;2.72;;;;;;;28.15;49.84;100709.44;5016615;28;70915;-39
2022/09/30 21:05:55;;;;;;;4.45;2.20;;;;;;;28.14;49.59;100718.53;5020504;28;66460;-38
2022/09/30 21:08:27;;;;;;;3.50;2.85;;;;;;;28.12;49.19;100705.28;5020408;28;70926;-38
2022/09/30 21:11:01;;;;;;;3.63;2.35;;;;;;;28.12;49.31;100723.31;5020168;28;66878;-39
2022/09/30 21:13:34;;;;;;;2.60;2.40;;;;;;;28.11;49.62;100716.25;5011143;28;70693;-39
2022/09/30 21:16:07;;;;;;;2.80;2.60;;;;;;;28.00;49.38;100694.28;5018792;28;66252;-38
2022/09/30 21:18:40;;;;;;;4.00;2.78;;;;;;;28.11;48.81;100713.56;5019436;28;70601;-39
2022/09/30 21:21:14;;;;;;;2.67;2.42;;;;;;;27.21;48.71;100564.72;5020803;28;66185;-39
2022/09/30 21:23:46;;;;;;;2.72;2.53;;;;;;;28.09;49.27;100721.88;5015983;28;70924;-39
2022/09/30 21:26:19;;;;;;;2.80;2.60;;;;;;;28.07;49.07;100723.94;5017778;28;66420;-39
2022/09/30 21:28:52;;;;;;;2.47;2.28;;;;;;;28.09;49.24;100727.25;5015929;28;71127;-38
2022/09/30 21:31:26;;;;;;;2.53;2.33;;;;;;;28.09;48.96;100737.22;5019904;28;66211;-38
2022/09/30 21:33:59;;;;;;;2.50;2.30;;;;;;;28.07;48.95;100718.53;5019063;28;70911;-38
2022/09/30 21:36:31;;;;;;;2.65;2.45;;;;;;;28.07;48.64;100726.63;5010507;28;66765;-39
2022/09/30 21:39:04;;;;;;;2.85;2.63;;;;;;;28.05;48.72;100724.16;5019577;28;70360;-39
2022/09/30 21:41:36;;;;;;;2.60;2.40;;;;;;;28.03;48.56;100725.41;5020582;28;67146;-39
2022/09/30 21:44:09;;;;;;;2.65;2.45;;;;;;;28.03;48.54;100734.31;5013916;28;70891;-38
2022/09/30 21:46:41;;;;;;;2.45;2.25;;;;;;;27.98;48.95;100715.22;5020512;28;66708;-39
2022/09/30 21:49:21;;;;;;;2.35;2.15;;;;;;;27.94;48.52;100711.25;5007153;28;70168;-39
2022/09/30 21:51:54;;;;;;;2.72;2.35;;;;;;;27.84;48.96;100713.53;5019800;28;66796;-39
2022/09/30 21:54:27;;;;;;;2.42;2.22;;;;;;;27.98;48.51;100733.25;5019410;28;70814;-40
2022/09/30 21:57:00;;;;;;;2.33;2.13;;;;;;;27.98;48.98;100742.19;5012732;28;66318;-39
2022/09/30 21:59:42;;;;;;;2.63;2.42;;;;;;;27.41;48.88;100654.50;5019563;28;70767;-39
2022/09/30 22:02:19;;;;;;;2.83;2.50;;;;;;;27.97;48.82;100747.75;5013997;28;66161;-39
2022/09/30 22:04:52;;;;;;;2.70;2.50;;;;;;;27.94;48.42;100746.28;5016786;28;71071;-40
2022/09/30 22:07:26;;;;;;;2.50;2.30;;;;;;;27.54;48.29;100676.09;5016883;28;66262;-40
2022/09/30 22:09:58;;;;;;;2.58;2.38;;;;;;;28.00;48.83;100747.34;5017659;28;71025;-39
2022/09/30 22:12:34;;;;;;;5.90;2.53;;;;;;;27.97;48.34;100761.22;5016702;28;66954;-40
2022/09/30 22:15:07;;;;;;;3.10;2.90;;;;;;;27.97;48.56;100759.41;5017413;28;70309;-39
2022/09/30 22:17:39;;;;;;;3.35;2.53;;;;;;;27.96;48.40;100760.41;5004658;28;66576;-38
2022/09/30 22:20:12;;;;;;;4.18;2.58;;;;;;;27.96;48.67;100770.38;5002694;28;70778;-38
2022/09/30 22:22:47;;;;;;;3.10;2.70;;;;;;;27.98;48.48;100769.13;5011292;28;66598;-39
2022/09/30 22:25:21;;;;;;;3.92;2.30;;;;;;;27.96;48.40;100771.19;5006159;28;70378;-40
2022/09/30 22:27:53;;;;;;;3.30;3.00;;;;;;;27.96;48.27;100770.38;5006660;28;66578;-39
2022/09/30 22:30:29;;;;;;;3.42;2.83;;;;;;;27.95;48.48;100758.75;5010660;28;71361;-39
2022/09/30 22:38:45;;;;;;;2.72;2.53;;;;;;;28.10;49.80;100768.53;5007602;28;67260;-39
2022/09/30 22:41:17;;;;;;;4.13;2.20;;;;;;;28.16;50.38;100759.63;5013851;28;70717;-39
2022/09/30 22:43:50;;;;;;;4.95;2.67;;;;;;;28.25;50.57;100763.78;5017402;28;66057;-39
2022/09/30 22:46:22;;;;;;;3.42;2.35;;;;;;;28.23;51.13;100744.28;4998101;28;69873;-39
2022/09/30 22:48:58;;;;;;;3.38;2.95;;;;;;;28.40;51.10;100760.91;5017827;28;67160;-39
2022/09/30 22:51:31;;;;;;;3.67;2.95;;;;;;;28.45;51.87;100761.97;5014009;28;69988;-39
2022/09/30 22:54:04;;;;;;;2.70;2.50;;;;;;;28.52;52.21;100764.69;5001364;28;66330;-39
2022/09/30 22:57:01;;;;;;;2.97;2.42;;;;;;;28.57;52.31;100761.38;5008425;28;70654;-38
2022/09/30 22:59:51;;;;;;;3.58;3.28;;;;;;;28.61;52.85;100765.28;5015164;28;66201;-39
2022/09/30 23:02:45;;;;;;;5.50;3.28;;;;;;;28.44;55.09;100768.41;5019341;28;70433;-39
2022/09/30 23:05:19;;;;;;;5.32;3.20;;;;;;;28.48;55.69;100777.75;5017958;28;66459;-39
2022/09/30 23:07:53;;;;;;;3.15;2.95;;;;;;;28.50;56.87;100785.63;5011360;28;70286;-39
2022/09/30 23:10:25;;;;;;;4.85;3.25;;;;;;;28.51;56.88;100796.22;5011316;28;66859;-39